Bowdon, North Dakota
Current Conditions -  °F | °C
As of 7:15 PM on Saturday 25 Oct 2014 (Local Time) from K5H4 Reporting Station
Clear Clear  
Wind Chill: 50°   Ceiling: Unl
Heat Index: 50°   Visibility: 10mi
Dew Point: 25°   Wind: 0mph
Humidity: 37%   Direction: NA
Pressure: 30.01"   Gusts: NA
Location:  47.47°N, 99.71°W
Report Text: K5H4 260015Z AUTO 00000KT 10SM CLR 10/M04 A3001 RMK AO2
Loading
Personal Weather Stations






























Interactive Weather Map
Tropical Storm Tracking
New forecast layout! Learn more

10-Day Weather Forecast

Advertisements
Track Severe Weather on mobile